sensor_id;sensor_type;location;lat;lon;timestamp;temperature;humidity
66128;DHT22;52925;52.436;-1.952;2023-07-31T00:00:46;17.70;95.10
66128;DHT22;52925;52.436;-1.952;2023-07-31T00:02:09;17.80;95.00
66128;DHT22;52925;52.436;-1.952;2023-07-31T00:03:28;17.80;95.10
66128;DHT22;52925;52.436;-1.952;2023-07-31T00:04:49;17.80;95.30
66128;DHT22;52925;52.436;-1.952;2023-07-31T00:06:09;17.80;95.10
66128;DHT22;52925;52.436;-1.952;2023-07-31T00:07:29;17.70;95.30
66128;DHT22;52925;52.436;-1.952;2023-07-31T00:08:49;17.70;95.40
66128;DHT22;52925;52.436;-1.952;2023-07-31T00:10:10;17.70;95.30
66128;DHT22;52925;52.436;-1.952;2023-07-31T00:11:30;17.70;95.40
66128;DHT22;52925;52.436;-1.952;2023-07-31T00:12:51;17.70;95.40
66128;DHT22;52925;52.436;-1.952;2023-07-31T00:14:11;17.70;95.40
66128;DHT22;52925;52.436;-1.952;2023-07-31T00:15:31;17.70;95.20
66128;DHT22;52925;52.436;-1.952;2023-07-31T00:16:51;17.70;95.50
66128;DHT22;52925;52.436;-1.952;2023-07-31T00:18:13;17.70;95.10
66128;DHT22;52925;52.436;-1.952;2023-07-31T00:19:33;17.70;95.60
66128;DHT22;52925;52.436;-1.952;2023-07-31T00:20:54;17.60;95.80
66128;DHT22;52925;52.436;-1.952;2023-07-31T00:22:14;17.60;95.70
66128;DHT22;52925;52.436;-1.952;2023-07-31T00:23:35;17.60;95.60
66128;DHT22;52925;52.436;-1.952;2023-07-31T00:24:55;17.60;95.60
66128;DHT22;52925;52.436;-1.952;2023-07-31T00:26:16;17.60;95.50
66128;DHT22;52925;52.436;-1.952;2023-07-31T00:27:36;17.60;95.60
66128;DHT22;52925;52.436;-1.952;2023-07-31T00:28:57;17.60;95.50
66128;DHT22;52925;52.436;-1.952;2023-07-31T00:30:17;17.70;95.70
66128;DHT22;52925;52.436;-1.952;2023-07-31T00:31:38;17.60;96.00
66128;DHT22;52925;52.436;-1.952;2023-07-31T00:32:58;17.60;95.70
66128;DHT22;52925;52.436;-1.952;2023-07-31T00:34:20;17.60;95.70
66128;DHT22;52925;52.436;-1.952;2023-07-31T00:35:40;17.60;95.60
66128;DHT22;52925;52.436;-1.952;2023-07-31T00:37:01;17.60;95.70
66128;DHT22;52925;52.436;-1.952;2023-07-31T00:38:21;17.70;95.70
66128;DHT22;52925;52.436;-1.952;2023-07-31T00:39:41;17.60;95.70
66128;DHT22;52925;52.436;-1.952;2023-07-31T00:41:02;17.60;95.60
66128;DHT22;52925;52.436;-1.952;2023-07-31T00:42:22;17.60;95.80
66128;DHT22;52925;52.436;-1.952;2023-07-31T00:43:43;17.60;95.50
66128;DHT22;52925;52.436;-1.952;2023-07-31T00:45:04;17.70;95.70
66128;DHT22;52925;52.436;-1.952;2023-07-31T00:46:25;17.70;95.60
66128;DHT22;52925;52.436;-1.952;2023-07-31T00:47:45;17.70;95.60
66128;DHT22;52925;52.436;-1.952;2023-07-31T00:49:06;17.70;95.80
66128;DHT22;52925;52.436;-1.952;2023-07-31T00:50:28;17.70;95.50
66128;DHT22;52925;52.436;-1.952;2023-07-31T00:51:51;17.70;95.60
66128;DHT22;52925;52.436;-1.952;2023-07-31T00:53:11;17.70;95.60
66128;DHT22;52925;52.436;-1.952;2023-07-31T00:54:33;17.70;95.60
66128;DHT22;52925;52.436;-1.952;2023-07-31T00:55:54;17.70;95.50
66128;DHT22;52925;52.436;-1.952;2023-07-31T00:57:14;17.70;95.40
66128;DHT22;52925;52.436;-1.952;2023-07-31T00:58:34;17.70;95.70
66128;DHT22;52925;52.436;-1.952;2023-07-31T00:59:55;17.70;95.90
66128;DHT22;52925;52.436;-1.952;2023-07-31T01:01:15;17.70;95.60
66128;DHT22;52925;52.436;-1.952;2023-07-31T01:02:36;17.70;95.70
66128;DHT22;52925;52.436;-1.952;2023-07-31T01:03:56;17.70;95.50
66128;DHT22;52925;52.436;-1.952;2023-07-31T01:05:18;17.60;95.70
66128;DHT22;52925;52.436;-1.952;2023-07-31T01:06:47;17.60;96.00
66128;DHT22;52925;52.436;-1.952;2023-07-31T01:08:15;17.70;96.00
66128;DHT22;52925;52.436;-1.952;2023-07-31T01:09:42;17.70;95.90
66128;DHT22;52925;52.436;-1.952;2023-07-31T01:11:09;17.70;95.50
66128;DHT22;52925;52.436;-1.952;2023-07-31T01:12:33;17.70;95.50
66128;DHT22;52925;52.436;-1.952;2023-07-31T01:13:54;17.80;95.70
66128;DHT22;52925;52.436;-1.952;2023-07-31T01:15:16;17.80;95.70
66128;DHT22;52925;52.436;-1.952;2023-07-31T22:09:44;17.70;93.20
66128;DHT22;52925;52.436;-1.952;2023-07-31T22:11:06;17.60;93.30
66128;DHT22;52925;52.436;-1.952;2023-07-31T22:12:26;17.60;93.40
66128;DHT22;52925;52.436;-1.952;2023-07-31T22:13:46;17.60;93.40
66128;DHT22;52925;52.436;-1.952;2023-07-31T22:15:07;17.60;93.40
66128;DHT22;52925;52.436;-1.952;2023-07-31T22:16:28;17.50;93.40
66128;DHT22;52925;52.436;-1.952;2023-07-31T22:17:48;17.60;93.40
66128;DHT22;52925;52.436;-1.952;2023-07-31T22:19:09;17.60;93.40
66128;DHT22;52925;52.436;-1.952;2023-07-31T22:20:30;17.60;93.40
66128;DHT22;52925;52.436;-1.952;2023-07-31T22:21:50;17.60;93.40
66128;DHT22;52925;52.436;-1.952;2023-07-31T22:23:10;17.60;93.40
66128;DHT22;52925;52.436;-1.952;2023-07-31T22:24:31;17.50;93.30
66128;DHT22;52925;52.436;-1.952;2023-07-31T22:25:53;17.60;93.30
66128;DHT22;52925;52.436;-1.952;2023-07-31T22:27:14;17.50;93.40
66128;DHT22;52925;52.436;-1.952;2023-07-31T22:28:34;17.50;93.40
66128;DHT22;52925;52.436;-1.952;2023-07-31T22:29:55;17.50;93.50
66128;DHT22;52925;52.436;-1.952;2023-07-31T22:31:15;17.50;93.50
66128;DHT22;52925;52.436;-1.952;2023-07-31T22:32:36;17.50;93.50
66128;DHT22;52925;52.436;-1.952;2023-07-31T22:33:56;17.50;93.30
66128;DHT22;52925;52.436;-1.952;2023-07-31T22:35:17;17.40;93.60
66128;DHT22;52925;52.436;-1.952;2023-07-31T22:36:37;17.30;93.70
66128;DHT22;52925;52.436;-1.952;2023-07-31T22:37:58;17.30;93.80
66128;DHT22;52925;52.436;-1.952;2023-07-31T22:39:18;17.30;93.80
66128;DHT22;52925;52.436;-1.952;2023-07-31T22:40:38;17.30;93.90
66128;DHT22;52925;52.436;-1.952;2023-07-31T22:42:00;17.30;94.00
66128;DHT22;52925;52.436;-1.952;2023-07-31T22:43:21;17.30;93.90
66128;DHT22;52925;52.436;-1.952;2023-07-31T22:44:41;17.30;93.90
66128;DHT22;52925;52.436;-1.952;2023-07-31T22:46:02;17.30;93.90
66128;DHT22;52925;52.436;-1.952;2023-07-31T22:47:22;17.30;93.70
66128;DHT22;52925;52.436;-1.952;2023-07-31T22:48:42;17.30;93.70
66128;DHT22;52925;52.436;-1.952;2023-07-31T22:50:03;17.30;93.80
66128;DHT22;52925;52.436;-1.952;2023-07-31T22:51:24;17.30;93.80
66128;DHT22;52925;52.436;-1.952;2023-07-31T22:52:45;17.30;93.90
66128;DHT22;52925;52.436;-1.952;2023-07-31T22:54:07;17.30;94.00
66128;DHT22;52925;52.436;-1.952;2023-07-31T22:55:27;17.20;94.00
66128;DHT22;52925;52.436;-1.952;2023-07-31T22:56:48;17.20;94.10
66128;DHT22;52925;52.436;-1.952;2023-07-31T22:58:09;17.20;94.10
66128;DHT22;52925;52.436;-1.952;2023-07-31T22:59:30;17.20;94.00
66128;DHT22;52925;52.436;-1.952;2023-07-31T23:00:50;17.30;93.90
66128;DHT22;52925;52.436;-1.952;2023-07-31T23:02:11;17.20;93.90
66128;DHT22;52925;52.436;-1.952;2023-07-31T23:03:31;17.20;93.80
66128;DHT22;52925;52.436;-1.952;2023-07-31T23:04:52;17.30;93.80
66128;DHT22;52925;52.436;-1.952;2023-07-31T23:06:13;17.30;93.80
66128;DHT22;52925;52.436;-1.952;2023-07-31T23:07:34;17.20;93.90
66128;DHT22;52925;52.436;-1.952;2023-07-31T23:08:54;17.30;93.90
66128;DHT22;52925;52.436;-1.952;2023-07-31T23:10:15;17.30;93.80
66128;DHT22;52925;52.436;-1.952;2023-07-31T23:11:35;17.30;93.90
66128;DHT22;52925;52.436;-1.952;2023-07-31T23:12:56;17.10;93.90
66128;DHT22;52925;52.436;-1.952;2023-07-31T23:14:17;17.10;94.10
66128;DHT22;52925;52.436;-1.952;2023-07-31T23:15:38;17.10;94.10
66128;DHT22;52925;52.436;-1.952;2023-07-31T23:16:58;17.20;94.00
66128;DHT22;52925;52.436;-1.952;2023-07-31T23:18:19;17.30;93.90
66128;DHT22;52925;52.436;-1.952;2023-07-31T23:19:39;17.20;93.80
66128;DHT22;52925;52.436;-1.952;2023-07-31T23:21:00;17.00;94.00
66128;DHT22;52925;52.436;-1.952;2023-07-31T23:22:19;17.10;94.10
66128;DHT22;52925;52.436;-1.952;2023-07-31T23:23:41;17.20;94.00
66128;DHT22;52925;52.436;-1.952;2023-07-31T23:25:01;17.20;94.00
66128;DHT22;52925;52.436;-1.952;2023-07-31T23:26:22;17.20;93.80
66128;DHT22;52925;52.436;-1.952;2023-07-31T23:27:42;17.20;93.80
66128;DHT22;52925;52.436;-1.952;2023-07-31T23:29:03;17.30;93.80
66128;DHT22;52925;52.436;-1.952;2023-07-31T23:30:25;17.30;93.70
66128;DHT22;52925;52.436;-1.952;2023-07-31T23:31:46;17.20;93.70
66128;DHT22;52925;52.436;-1.952;2023-07-31T23:33:05;17.20;93.80
66128;DHT22;52925;52.436;-1.952;2023-07-31T23:34:27;17.20;93.80
66128;DHT22;52925;52.436;-1.952;2023-07-31T23:35:48;17.30;93.70
66128;DHT22;52925;52.436;-1.952;2023-07-31T23:37:07;17.10;93.90
66128;DHT22;52925;52.436;-1.952;2023-07-31T23:38:28;17.10;93.80
66128;DHT22;52925;52.436;-1.952;2023-07-31T23:39:48;17.00;94.10
66128;DHT22;52925;52.436;-1.952;2023-07-31T23:41:09;17.00;94.20
66128;DHT22;52925;52.436;-1.952;2023-07-31T23:42:29;17.10;94.20
66128;DHT22;52925;52.436;-1.952;2023-07-31T23:43:50;17.00;94.00
66128;DHT22;52925;52.436;-1.952;2023-07-31T23:45:10;17.10;94.10
66128;DHT22;52925;52.436;-1.952;2023-07-31T23:46:36;17.10;94.00
66128;DHT22;52925;52.436;-1.952;2023-07-31T23:47:55;17.20;94.00
66128;DHT22;52925;52.436;-1.952;2023-07-31T23:49:17;17.20;93.80
66128;DHT22;52925;52.436;-1.952;2023-07-31T23:50:37;17.10;93.90
66128;DHT22;52925;52.436;-1.952;2023-07-31T23:52:00;17.10;94.00
66128;DHT22;52925;52.436;-1.952;2023-07-31T23:53:20;17.10;93.90
66128;DHT22;52925;52.436;-1.952;2023-07-31T23:54:41;17.20;93.80
66128;DHT22;52925;52.436;-1.952;2023-07-31T23:56:02;17.10;93.90
66128;DHT22;52925;52.436;-1.952;2023-07-31T23:57:23;17.10;94.00
66128;DHT22;52925;52.436;-1.952;2023-07-31T23:58:43;17.10;94.00
